Airport View

Enter AWOS ICAO identifier for current METAR.

ex. KFNL

KSYF 261235Z AUTO 20015KT 10SM CLR 20/12 A2998 RMK AO2 T02000117

26 Jun 2019 12:59

Frequency: 118.925

Phone: 785-332-2691

Other Area AWOS: KGLD - K2V5 - KITR - KCBK

TAF AMD KGLD 261205Z 2612/2712 18015KT P6SM SKC FM261930 18018G26KT P6SM SCT120 PROB30 2622/2702 VRB35G45KT 5SM -TSRA BKN100CB